Cloquet, Minnesota
Current Conditions -  °F | °C
As of 2:56 AM on Saturday 25 Oct 2014 (Local Time) from KCOQ Reporting Station
Clear Clear  
Wind Chill: 52°   Ceiling: Unl
Heat Index: 52°   Visibility: 10mi
Dew Point: 34°   Wind: 10mph
Humidity: 50%   Direction: 270°W
Pressure: 29.84"   Gusts: NA
Location:  46.71°N, 92.48°W
Report Text: KCOQ 250756Z AUTO 27009KT 10SM CLR 11/01 A2984 RMK AO2
Loading
Personal Weather Stations






























Interactive Weather Map
Tropical Storm Tracking
New forecast layout! Learn more

10-Day Weather Forecast

Advertisements
Track Severe Weather on mobile